Time;durP1;ratioP1;P1;durP2;ratioP2;P2;SDS_P1;SDS_P2;PMS_P1;PMS_P2;Temp;Humidity;BMP_temperature;BMP_pressure;BME280_temperature;BME280_humidity;BME280_pressure;Samples;Min_cycle;Max_cycle;Signal;HPM_P1;HPM_P2
2022/01/13 00:01:30;;;;;;;35.20;15.48;;;6.60;99.90;;;6.78;93.64;104026.69;5074461;28;20056;-71
2022/01/13 00:04:00;;;;;;;28.10;14.98;;;6.60;99.90;;;6.75;94.03;104016.00;5073459;28;20048;-71
2022/01/13 00:06:28;;;;;;;30.98;16.17;;;6.50;99.90;;;6.74;94.18;104014.16;5074368;28;20044;-70
2022/01/13 00:08:57;;;;;;;38.53;14.65;;;6.50;99.90;;;6.69;94.27;104013.00;5074502;28;20048;-69
2022/01/13 00:11:25;;;;;;;26.50;13.80;;;6.50;99.90;;;6.67;94.05;104019.88;5072955;28;20049;-70
2022/01/13 00:14:10;;;;;;;20.48;13.85;;;6.50;99.90;;;6.66;94.33;104016.34;5074213;28;20091;-73
2022/01/13 00:16:43;;;;;;;48.50;15.98;;;6.50;99.90;;;6.61;94.39;104016.88;5074060;28;20140;-71
2022/01/13 00:19:31;;;;;;;30.10;14.87;;;6.40;99.90;;;6.51;94.57;104014.47;5074500;28;20044;-71
2022/01/13 00:22:13;;;;;;;68.53;16.83;;;6.30;99.90;;;6.47;94.91;104012.47;5074044;28;20119;-73
2022/01/13 00:24:43;;;;;;;34.87;16.23;;;6.30;99.90;;;6.31;94.75;103976.41;5074179;28;20098;-69
2022/01/13 00:27:13;;;;;;;39.55;15.50;;;6.30;99.90;;;6.38;95.00;104007.56;5073417;28;20406;-76
2022/01/13 00:29:44;;;;;;;38.97;15.68;;;6.20;99.90;;;6.43;95.13;104005.22;5074125;28;20155;-69
2022/01/13 00:32:16;;;;;;;33.97;15.23;;;6.20;99.90;;;6.40;95.38;104005.94;5073834;28;20036;-69
2022/01/13 00:34:45;;;;;;;38.83;15.57;;;6.20;99.90;;;6.39;95.39;104004.09;5073822;28;20040;-69
2022/01/13 00:37:14;;;;;;;42.67;18.47;;;6.20;99.90;;;6.38;95.13;104004.91;5074008;28;20044;-69
2022/01/13 00:39:42;;;;;;;46.47;19.50;;;6.10;99.90;;;6.44;95.68;104002.69;5073604;28;20630;-70
2022/01/13 00:42:11;;;;;;;41.33;18.00;;;6.20;99.90;;;6.48;95.55;104002.06;5073877;28;20036;-69
2022/01/13 00:44:41;;;;;;;52.37;19.70;;;6.20;99.90;;;6.38;95.60;103999.66;5072562;28;20140;-69
2022/01/13 00:47:11;;;;;;;44.20;20.73;;;6.20;99.90;;;6.45;96.00;103998.31;5073712;28;20498;-69
2022/01/13 00:49:40;;;;;;;75.13;22.70;;;6.20;99.90;;;6.40;95.57;103995.41;5073807;28;20037;-70
2022/01/13 00:52:09;;;;;;;58.30;22.55;;;6.20;99.90;;;6.29;95.79;103997.34;5073865;28;20048;-70
2022/01/13 00:54:39;;;;;;;51.47;24.77;;;6.10;99.90;;;6.39;96.44;104005.00;5073915;28;20111;-69
2022/01/13 00:57:07;;;;;;;108.47;25.63;;;6.20;99.90;;;6.47;96.53;104020.34;5072178;28;20060;-70
2022/01/13 00:59:35;;;;;;;53.07;24.03;;;6.20;99.90;;;6.52;96.36;104011.97;5072061;28;20588;-69
2022/01/13 01:02:04;;;;;;;49.55;24.98;;;6.30;99.90;;;6.54;96.33;104017.31;5073694;28;20127;-69
2022/01/13 01:04:33;;;;;;;63.78;24.92;;;6.30;99.90;;;6.58;96.18;104020.19;5073106;28;20501;-70
2022/01/13 01:07:03;;;;;;;53.65;26.48;;;6.30;99.90;;;6.63;96.18;104025.75;5073059;28;20482;-69
2022/01/13 01:09:39;;;;;;;54.33;25.05;;;6.40;99.90;;;6.59;96.30;104019.41;5073385;28;20044;-69
2022/01/13 01:12:10;;;;;;;57.00;27.13;;;6.40;99.90;;;6.63;96.30;104031.03;5073837;28;20127;-69
2022/01/13 01:14:45;;;;;;;83.97;27.58;;;6.40;99.90;;;6.67;96.25;104018.16;5073198;28;20551;-69
2022/01/13 01:17:15;;;;;;;105.60;29.23;;;6.50;99.90;;;6.53;96.54;104016.38;5073199;28;20402;-69
2022/01/13 01:19:47;;;;;;;60.00;24.90;;;6.40;99.90;;;6.63;96.44;104023.13;5073149;28;20070;-69
2022/01/13 01:25:30;;;;;;;59.30;24.95;;;6.40;99.90;;;6.69;96.44;104036.66;5060050;28;20072;-70
2022/01/13 01:27:59;;;;;;;60.55;26.48;;;6.50;99.90;;;6.79;96.43;104033.78;5072667;28;20106;-69
2022/01/13 01:30:34;;;;;;;73.95;28.13;;;6.50;99.90;;;6.77;96.28;104022.28;5072853;28;20080;-69
2022/01/13 01:33:03;;;;;;;67.88;27.00;;;6.50;99.90;;;6.87;96.31;104037.81;5072753;28;20074;-70
2022/01/13 01:35:32;;;;;;;54.70;26.83;;;6.60;99.90;;;6.96;96.13;104027.84;5072516;28;20828;-70
2022/01/13 01:38:01;;;;;;;55.80;25.98;;;6.70;99.90;;;6.89;95.96;104030.91;5072213;28;20239;-70
2022/01/13 01:40:30;;;;;;;64.43;26.45;;;6.70;99.90;;;6.94;95.89;104030.38;5072701;28;20546;-69
2022/01/13 01:42:58;;;;;;;54.78;24.77;;;6.70;99.90;;;6.91;95.50;104024.03;5072453;28;20721;-69
2022/01/13 01:45:32;;;;;;;50.83;23.35;;;6.70;99.90;;;6.93;95.87;104031.19;5072614;28;20444;-69
2022/01/13 01:48:03;;;;;;;97.68;23.35;;;6.70;99.90;;;6.88;95.35;104031.72;5072616;28;20131;-69
2022/01/13 01:50:36;;;;;;;59.90;22.42;;;6.70;99.90;;;6.92;95.74;104037.28;5072354;28;20072;-69
2022/01/13 01:53:07;;;;;;;45.80;22.73;;;6.70;99.90;;;6.99;95.77;104038.53;5072312;28;20051;-69
2022/01/13 01:55:36;;;;;;;90.57;24.30;;;6.70;99.90;;;6.81;95.51;104043.59;5072336;28;20408;-69
2022/01/13 01:58:05;;;;;;;47.75;22.65;;;6.60;99.90;;;6.83;95.85;104035.81;5071334;28;20052;-69
2022/01/13 02:00:33;;;;;;;54.55;21.48;;;6.60;99.90;;;6.83;95.93;104041.94;5072400;28;20119;-70
2022/01/13 02:03:02;;;;;;;61.58;22.92;;;6.60;99.90;;;6.78;96.07;104038.13;5071336;28;20102;-69
2022/01/13 02:05:30;;;;;;;64.40;24.20;;;6.50;99.90;;;6.76;95.99;104030.97;5072331;28;20052;-69
2022/01/13 02:07:59;;;;;;;62.45;22.38;;;6.60;99.90;;;6.67;96.35;104039.22;5072602;28;20048;-70
2022/01/13 02:10:29;;;;;;;56.87;22.30;;;6.50;99.90;;;6.68;96.47;104040.13;5072181;28;20528;-69
2022/01/13 02:13:03;;;;;;;57.53;22.40;;;6.40;99.90;;;6.76;96.60;104030.97;5071906;28;20095;-69
2022/01/13 02:15:49;;;;;;;50.95;20.95;;;6.50;99.90;;;6.77;96.33;104027.53;5072102;28;20514;-69
2022/01/13 02:18:17;;;;;;;48.13;22.00;;;6.50;99.90;;;6.68;96.33;104026.97;5071849;28;20041;-69
2022/01/13 02:20:52;;;;;;;70.13;22.57;;;6.50;99.90;;;6.62;96.94;104009.06;5072092;28;20090;-70
2022/01/13 02:23:36;;;;;;;60.60;21.02;;;6.50;99.90;;;6.79;96.58;104023.28;5071722;28;20078;-70
2022/01/13 02:26:09;;;;;;;67.37;24.83;;;6.50;99.90;;;6.78;96.48;104042.47;5072007;28;20094;-71
2022/01/13 02:28:38;;;;;;;47.93;21.60;;;6.60;99.90;;;6.76;96.30;104023.06;5071948;28;20064;-70
2022/01/13 02:31:07;;;;;;;65.82;24.77;;;6.60;99.90;;;6.74;96.79;104020.34;5071915;28;20186;-70
2022/01/13 02:33:35;;;;;;;46.23;22.90;;;6.50;99.90;;;6.71;96.78;104008.72;5071456;28;20479;-70
2022/01/13 02:36:07;;;;;;;73.80;24.08;;;6.50;99.90;;;6.73;96.73;103997.50;5071561;28;20106;-70
2022/01/13 02:38:35;;;;;;;61.50;23.60;;;6.50;99.90;;;6.67;96.63;103994.50;5071753;28;20087;-70
2022/01/13 02:41:04;;;;;;;45.58;23.30;;;6.50;99.90;;;6.73;96.74;103986.06;5071363;28;20040;-70
2022/01/13 02:43:34;;;;;;;66.80;23.20;;;6.50;99.90;;;6.69;96.84;103982.34;5071422;28;20098;-69
2022/01/13 02:46:18;;;;;;;58.45;24.13;;;6.50;99.90;;;6.69;96.71;103978.78;5071654;28;20052;-69
2022/01/13 02:48:48;;;;;;;52.38;22.67;;;6.50;99.90;;;6.71;97.07;103972.81;5071545;28;20052;-70
2022/01/13 02:51:19;;;;;;;73.00;23.75;;;6.50;99.90;;;6.64;97.02;103967.97;5071235;28;20383;-70
2022/01/13 02:53:47;;;;;;;63.03;23.48;;;6.40;99.90;;;6.63;97.09;103965.25;5071519;28;20097;-70
2022/01/13 02:56:15;;;;;;;43.72;23.95;;;6.40;99.90;;;6.67;97.40;103968.19;5070402;28;20493;-70
2022/01/13 02:58:45;;;;;;;51.60;24.10;;;6.40;99.90;;;6.68;97.45;103967.34;5071921;28;20044;-70
2022/01/13 03:01:14;;;;;;;60.47;24.48;;;6.40;99.90;;;6.70;97.66;103967.44;5071191;28;20090;-70
2022/01/13 03:03:45;;;;;;;84.25;23.83;;;6.50;99.90;;;6.73;97.51;103972.91;5071177;28;20151;-70
2022/01/13 03:06:16;;;;;;;44.67;23.38;;;6.50;99.90;;;6.61;97.26;103975.69;5071372;28;20060;-71
2022/01/13 03:08:48;;;;;;;71.50;24.83;;;6.50;99.90;;;6.69;97.06;103976.16;5071526;28;20070;-70
2022/01/13 03:11:17;;;;;;;56.13;24.08;;;6.50;99.90;;;6.82;97.48;103977.00;5071278;28;20072;-70
2022/01/13 03:13:45;;;;;;;51.53;23.80;;;6.60;99.90;;;6.86;97.44;103973.75;5071471;28;20072;-70
2022/01/13 03:16:15;;;;;;;68.68;25.40;;;6.60;99.90;;;6.79;97.12;103968.03;5071654;28;20036;-71
2022/01/13 03:18:45;;;;;;;45.28;24.58;;;6.60;99.90;;;6.85;97.06;103965.78;5071396;28;20048;-70
2022/01/13 03:21:13;;;;;;;62.63;25.48;;;6.60;99.90;;;6.89;97.21;103967.78;5071580;28;20055;-70
2022/01/13 03:23:42;;;;;;;50.05;25.38;;;6.60;99.90;;;6.90;97.39;103973.13;5071085;28;20496;-69
2022/01/13 03:26:12;;;;;;;59.27;25.57;;;6.70;99.90;;;6.86;97.06;103960.59;5071093;28;20139;-69
2022/01/13 03:28:51;;;;;;;55.60;25.02;;;6.70;99.90;;;6.90;96.95;103957.34;5071121;28;20107;-69
2022/01/13 03:31:21;;;;;;;53.65;26.95;;;6.70;99.90;;;6.93;96.91;103975.03;5071400;28;20449;-70
2022/01/13 03:33:50;;;;;;;64.53;26.40;;;6.70;99.90;;;6.89;97.18;103963.38;5071057;28;20454;-70
2022/01/13 03:36:18;;;;;;;53.27;26.33;;;6.70;99.90;;;6.88;97.02;103961.59;5071323;28;20128;-70
2022/01/13 03:38:47;;;;;;;52.00;26.23;;;6.70;99.90;;;6.87;97.23;103967.66;5069924;28;20529;-70
2022/01/13 03:41:17;;;;;;;62.47;26.13;;;6.70;99.90;;;6.92;97.22;103962.69;5069884;28;20185;-70
2022/01/13 03:43:45;;;;;;;100.65;27.42;;;6.70;99.90;;;6.83;97.35;103956.88;5071460;28;20079;-70
2022/01/13 03:46:14;;;;;;;76.05;27.35;;;6.60;99.90;;;6.85;97.28;103955.25;5071586;28;20051;-70
2022/01/13 03:48:43;;;;;;;74.53;26.47;;;6.60;99.90;;;6.90;97.28;103956.41;5071140;28;20033;-70
2022/01/13 03:51:12;;;;;;;72.30;27.70;;;6.70;99.90;;;6.83;97.40;103956.88;5071167;28;20159;-69
2022/01/13 03:54:53;;;;;;;66.47;28.00;;;6.60;99.90;;;6.91;97.48;103956.50;5070764;28;20048;-70
2022/01/13 03:58:53;;;;;;;49.85;27.25;;;6.70;99.90;;;7.02;97.19;103962.41;5070817;28;20119;-70
2022/01/13 04:02:00;;;;;;;51.13;27.60;;;6.70;99.90;;;7.06;97.00;103953.88;5018884;28;20152;-70
2022/01/13 04:04:29;;;;;;;53.88;27.55;;;6.80;99.90;;;7.01;96.82;103956.25;5032143;28;20057;-69
2022/01/13 04:07:15;;;;;;;65.60;28.52;;;6.70;99.90;;;7.01;96.76;103957.94;5063271;28;20080;-70
2022/01/13 04:10:46;;;;;;;77.57;28.92;;;6.80;99.90;;;6.91;97.21;103961.75;5074109;28;20052;-70
2022/01/13 04:13:42;;;;;;;54.95;27.08;;;6.70;99.90;;;6.94;97.38;103955.78;5064065;28;20088;-69
2022/01/13 04:16:11;;;;;;;66.53;28.13;;;6.70;99.90;;;6.86;97.54;103954.41;5072760;28;20113;-70
2022/01/13 04:18:39;;;;;;;67.78;27.45;;;6.60;99.90;;;6.92;97.56;103962.69;5074239;28;20067;-69
2022/01/13 04:21:08;;;;;;;58.10;27.37;;;6.70;99.90;;;6.95;97.27;103962.88;5073948;28;20076;-70
2022/01/13 04:23:36;;;;;;;97.22;28.35;;;6.70;99.90;;;6.89;97.29;103962.50;5073934;28;20090;-69
2022/01/13 04:26:06;;;;;;;64.97;27.92;;;6.70;99.90;;;6.88;97.66;103965.94;5074122;28;20036;-70
2022/01/13 04:28:40;;;;;;;70.68;27.63;;;6.60;99.90;;;6.88;97.78;103958.03;5073844;28;20110;-70
2022/01/13 04:31:08;;;;;;;103.93;28.50;;;6.60;99.90;;;6.90;97.73;103954.69;5074183;28;20040;-69
2022/01/13 04:33:39;;;;;;;64.90;28.25;;;6.60;99.90;;;6.80;97.91;103954.03;5072581;28;20090;-69
2022/01/13 04:36:09;;;;;;;57.20;29.77;;;6.60;99.90;;;6.87;98.27;103954.50;5074634;28;20411;-69
2022/01/13 04:38:37;;;;;;;66.32;28.38;;;6.60;99.90;;;6.85;98.15;103947.34;5074336;28;20113;-70
2022/01/13 04:41:06;;;;;;;52.17;28.67;;;6.60;99.90;;;6.90;98.31;103949.44;5073565;28;20044;-70
2022/01/13 04:43:36;;;;;;;63.10;29.58;;;6.60;99.90;;;6.98;97.91;103950.81;5073580;28;20072;-70
2022/01/13 04:46:04;;;;;;;59.50;28.27;;;6.70;99.90;;;6.97;98.00;103955.94;5074156;28;20068;-70
2022/01/13 04:48:32;;;;;;;73.80;29.75;;;6.70;99.90;;;6.98;97.65;103949.88;5073824;28;20528;-69
2022/01/13 04:51:01;;;;;;;57.17;27.88;;;6.80;99.90;;;6.98;97.72;103952.53;5074321;28;20110;-70
2022/01/13 04:53:29;;;;;;;62.45;30.00;;;6.70;99.90;;;6.98;97.89;103955.16;5073465;28;20463;-70
2022/01/13 04:55:59;;;;;;;74.50;30.67;;;6.70;99.90;;;6.91;97.58;103961.75;5073710;28;20480;-69
2022/01/13 04:58:27;;;;;;;60.85;29.45;;;6.70;99.90;;;6.97;97.89;103961.22;5073393;28;20438;-70
2022/01/13 05:00:57;;;;;;;64.97;29.75;;;6.70;99.90;;;7.01;98.08;103948.34;5073572;28;20072;-70
2022/01/13 05:03:25;;;;;;;60.75;28.70;;;6.80;99.90;;;6.96;97.76;103965.59;5073881;28;20119;-69
2022/01/13 05:05:54;;;;;;;61.08;29.52;;;6.70;99.90;;;7.00;98.12;103958.78;5073598;28;20382;-65
2022/01/13 05:08:23;;;;;;;67.43;30.60;;;6.70;99.90;;;6.81;98.25;103964.69;5073846;28;20761;-72
2022/01/13 05:10:52;;;;;;;72.60;29.98;;;6.70;99.90;;;6.97;98.63;103951.59;5073304;28;20143;-71
2022/01/13 05:13:20;;;;;;;65.88;31.92;;;6.70;99.90;;;6.98;98.28;103958.69;5073104;28;20048;-70
2022/01/13 05:15:49;;;;;;;67.97;32.25;;;6.70;99.90;;;7.00;98.20;103956.16;5071718;28;20041;-72
2022/01/13 05:18:27;;;;;;;67.20;29.67;;;6.70;99.90;;;6.99;98.57;103964.84;5072821;28;20453;-71
2022/01/13 05:21:02;;;;;;;73.90;31.42;;;6.80;99.90;;;6.91;98.29;103963.50;5073415;28;20068;-70
2022/01/13 05:23:30;;;;;;;65.15;31.52;;;6.70;99.90;;;6.94;98.65;103966.31;5072893;28;20068;-69
2022/01/13 05:25:59;;;;;;;63.58;30.75;;;6.70;99.90;;;6.93;98.68;103964.50;5072731;28;20045;-70
2022/01/13 05:28:27;;;;;;;66.03;31.77;;;6.70;99.90;;;6.98;98.92;103963.03;5072801;28;20414;-69
2022/01/13 05:30:55;;;;;;;73.75;32.13;;;6.70;99.90;;;6.97;98.43;103967.41;5072608;28;20138;-68
2022/01/13 05:33:25;;;;;;;77.55;33.13;;;6.70;99.90;;;6.97;98.38;103966.47;5072522;28;20044;-69
2022/01/13 05:35:54;;;;;;;66.43;30.77;;;6.70;99.90;;;7.07;98.48;103974.13;5072907;28;20079;-69
2022/01/13 05:38:22;;;;;;;69.05;31.70;;;6.80;99.90;;;7.08;98.09;103963.66;5072984;28;20702;-70
2022/01/13 05:40:51;;;;;;;130.00;33.55;;;6.80;99.90;;;7.03;98.50;103958.94;5071158;28;20147;-70
2022/01/13 05:43:19;;;;;;;62.65;30.65;;;6.80;99.90;;;7.03;98.67;103959.88;5072541;28;20429;-70
2022/01/13 05:45:48;;;;;;;84.60;31.67;;;6.80;99.90;;;7.03;98.25;103959.88;5072507;28;20049;-69
2022/01/13 05:48:16;;;;;;;85.43;33.15;;;6.90;99.90;;;7.03;98.46;103951.97;5071084;28;20532;-70
2022/01/13 05:50:46;;;;;;;68.30;31.27;;;6.80;99.90;;;7.02;98.41;103955.44;5072483;28;20128;-70
2022/01/13 05:53:14;;;;;;;71.95;32.35;;;6.80;99.90;;;6.99;98.57;103949.97;5072081;28;20064;-70
2022/01/13 05:55:43;;;;;;;65.07;33.53;;;6.80;99.90;;;7.04;98.73;103952.88;5072577;28;20498;-69
2022/01/13 05:58:11;;;;;;;70.15;31.90;;;6.80;99.90;;;7.06;98.59;103948.63;5072248;28;20052;-69
2022/01/13 06:00:39;;;;;;;77.73;34.53;;;6.80;99.90;;;6.97;98.71;103946.34;5071961;28;20032;-70
2022/01/13 06:03:08;;;;;;;74.07;33.40;;;6.80;99.90;;;7.01;98.60;103957.94;5071937;28;20131;-69
2022/01/13 06:05:37;;;;;;;89.43;35.67;;;6.80;99.90;;;6.93;99.00;103948.72;5071891;28;20048;-70
2022/01/13 06:08:07;;;;;;;73.05;33.83;;;6.70;99.90;;;6.96;99.09;103952.44;5072357;28;20045;-70
2022/01/13 06:10:37;;;;;;;79.60;35.17;;;6.70;99.90;;;7.00;98.84;103950.88;5072461;28;20463;-69
2022/01/13 06:13:05;;;;;;;74.35;34.55;;;6.70;99.90;;;7.02;99.08;103950.19;5071888;28;20118;-69
2022/01/13 06:15:36;;;;;;;73.72;32.90;;;6.80;99.90;;;7.00;98.88;103948.25;5071781;28;20076;-69
2022/01/13 06:18:11;;;;;;;69.22;33.70;;;6.70;99.90;;;6.99;99.06;103949.97;5072110;28;20130;-69
2022/01/13 06:20:40;;;;;;;72.95;33.03;;;6.80;99.90;;;7.01;99.01;103952.69;5071835;28;20044;-69
2022/01/13 06:23:11;;;;;;;67.85;33.53;;;6.80;99.90;;;7.04;99.20;103956.44;5072073;28;20098;-69
2022/01/13 06:25:40;;;;;;;96.53;35.53;;;6.80;99.90;;;6.98;98.82;103952.53;5071369;28;20387;-70
2022/01/13 06:28:08;;;;;;;71.88;32.67;;;6.80;99.90;;;6.95;99.52;103962.88;5071999;28;20119;-70
2022/01/13 06:30:42;;;;;;;74.57;33.63;;;6.70;99.90;;;6.98;99.48;103957.78;5071827;28;20127;-69
2022/01/13 06:33:10;;;;;;;85.88;34.75;;;6.80;99.90;;;6.92;99.46;103952.16;5071992;28;20048;-70
2022/01/13 06:35:39;;;;;;;72.63;33.55;;;6.70;99.90;;;7.00;99.58;103950.88;5071674;28;20092;-70
2022/01/13 06:38:08;;;;;;;89.65;34.05;;;6.80;99.90;;;7.00;99.57;103954.44;5071723;28;20375;-71
2022/01/13 06:40:37;;;;;;;72.43;33.60;;;6.80;99.90;;;7.04;99.36;103952.88;5071748;28;20075;-70
2022/01/13 06:43:05;;;;;;;79.23;35.07;;;6.80;99.90;;;7.03;99.28;103951.06;5071985;28;20441;-70
2022/01/13 06:45:34;;;;;;;71.18;33.60;;;6.80;99.90;;;7.07;99.59;103947.78;5070274;28;20052;-69
2022/01/13 06:48:02;;;;;;;63.27;31.80;;;6.80;99.90;;;7.07;99.35;103950.44;5071397;28;20516;-69
2022/01/13 06:50:31;;;;;;;66.77;33.30;;;6.90;99.90;;;7.05;99.30;103949.44;5071774;28;20469;-70
2022/01/13 06:52:59;;;;;;;75.43;34.30;;;6.80;99.90;;;7.08;99.18;103953.13;5071820;28;20119;-70
2022/01/13 06:55:29;;;;;;;95.27;34.00;;;6.80;99.90;;;7.06;98.89;103956.53;5071384;28;20128;-70
2022/01/13 06:57:57;;;;;;;74.63;33.20;;;6.80;99.90;;;7.00;99.31;103957.06;5071502;28;20093;-70
2022/01/13 07:00:26;;;;;;;72.50;34.07;;;6.80;99.90;;;6.98;99.30;103960.41;5071453;28;20049;-70
2022/01/13 07:02:58;;;;;;;75.13;33.60;;;6.80;99.90;;;7.06;99.40;103959.16;5071731;28;20129;-70
2022/01/13 07:05:26;;;;;;;75.67;33.67;;;6.80;99.90;;;7.11;99.10;103962.94;5071235;28;20076;-70
2022/01/13 07:07:55;;;;;;;88.15;32.83;;;6.90;99.90;;;7.11;99.05;103970.84;5071311;28;20084;-70
2022/01/13 07:10:24;;;;;;;74.30;33.33;;;6.90;99.90;;;7.14;98.95;103971.06;5071472;28;20046;-69
2022/01/13 07:12:54;;;;;;;60.47;31.75;;;6.90;99.90;;;7.14;99.17;103971.06;5071078;28;20052;-71
2022/01/13 07:15:22;;;;;;;75.43;35.17;;;6.90;99.90;;;7.10;98.34;103966.41;5071329;28;20086;-70
2022/01/13 07:17:51;;;;;;;74.22;32.65;;;6.90;99.90;;;7.12;98.47;103964.78;5071266;28;20094;-70
2022/01/13 07:20:20;;;;;;;60.90;30.65;;;6.90;99.90;;;7.19;98.74;103969.59;5069512;28;20530;-69
2022/01/13 07:22:48;;;;;;;61.05;32.63;;;6.90;99.90;;;7.16;98.41;103969.41;5071221;28;20040;-70
2022/01/13 07:25:16;;;;;;;66.40;31.88;;;6.90;99.90;;;7.13;98.64;103970.13;5071336;28;20043;-69
2022/01/13 07:27:45;;;;;;;72.35;34.08;;;6.90;99.90;;;7.16;98.59;103961.53;5070873;28;20072;-70
2022/01/13 07:30:15;;;;;;;69.13;31.92;;;6.90;99.90;;;7.16;98.51;103962.41;5071109;28;20072;-70
2022/01/13 07:32:43;;;;;;;83.70;34.10;;;6.90;99.90;;;7.25;98.29;103967.31;5071575;28;20045;-70
2022/01/13 07:35:13;;;;;;;59.50;31.52;;;7.00;99.90;;;7.31;98.40;103970.31;5070904;28;20110;-70
2022/01/13 07:37:43;;;;;;;62.08;31.08;;;7.10;99.90;;;7.30;98.10;103976.38;5074061;28;20162;-70
2022/01/13 07:40:15;;;;;;;65.65;32.80;;;7.10;99.90;;;7.21;97.90;103966.22;5074849;28;20045;-70
2022/01/13 07:42:46;;;;;;;60.00;31.73;;;7.10;99.90;;;7.25;97.99;103976.13;5074716;28;20052;-70
2022/01/13 07:45:19;;;;;;;60.22;30.40;;;7.10;99.90;;;7.25;98.13;103980.47;5074818;28;20124;-70
2022/01/13 07:47:47;;;;;;;71.53;31.02;;;7.00;99.90;;;7.22;98.37;103972.38;5074686;28;20521;-69
2022/01/13 07:50:16;;;;;;;55.60;30.67;;;7.00;99.90;;;7.30;98.56;103976.38;5073418;28;20045;-70
2022/01/13 07:52:45;;;;;;;68.45;30.75;;;7.00;99.90;;;7.17;98.36;103958.06;5074538;28;20072;-70
2022/01/13 07:55:14;;;;;;;73.15;29.48;;;7.10;99.90;;;7.25;98.31;103975.22;5075092;28;20144;-71
2022/01/13 07:57:42;;;;;;;69.97;29.02;;;7.00;99.90;;;7.18;98.23;103989.72;5073148;28;20057;-70
2022/01/13 08:00:15;;;;;;;63.95;30.88;;;7.00;99.90;;;7.26;98.86;103987.53;5074683;28;20053;-72
2022/01/13 08:02:44;;;;;;;71.28;29.08;;;7.00;99.90;;;7.16;98.52;103975.56;5074532;28;20044;-67
2022/01/13 08:05:12;;;;;;;65.40;29.40;;;7.00;99.90;;;7.22;98.78;103990.81;5074393;28;20044;-68
2022/01/13 08:07:41;;;;;;;61.40;27.50;;;7.00;99.90;;;7.17;98.92;103987.00;5074595;28;20406;-67
2022/01/13 08:10:10;;;;;;;71.43;27.85;;;7.00;99.90;;;7.15;99.07;103967.59;5073243;28;20562;-68
2022/01/13 08:12:39;;;;;;;73.18;28.23;;;7.00;99.90;;;7.22;99.28;103988.19;5074038;28;20075;-67
2022/01/13 08:15:13;;;;;;;60.53;27.92;;;7.00;99.90;;;7.21;99.21;103989.00;5074200;28;20048;-68
2022/01/13 08:20:30;;;;;;;54.93;27.23;;;6.90;99.90;;;7.18;99.38;103986.22;5074109;28;20144;-67
2022/01/13 08:22:59;;;;;;;55.40;26.67;;;6.90;99.90;;;7.21;99.37;103987.28;5074165;28;20199;-68
2022/01/13 08:25:29;;;;;;;54.53;26.35;;;7.00;99.90;;;7.29;99.42;103993.00;5074184;28;20397;-68
2022/01/13 08:27:58;;;;;;;57.75;27.27;;;7.00;99.90;;;7.36;98.85;103991.63;5073912;28;20094;-68
2022/01/13 08:30:26;;;;;;;57.97;26.63;;;7.10;99.90;;;7.36;99.08;103995.19;5073992;28;20056;-68
2022/01/13 08:32:56;;;;;;;76.65;27.38;;;7.10;99.90;;;7.34;98.49;103988.91;5073746;28;20072;-69
2022/01/13 08:35:24;;;;;;;54.87;25.47;;;7.20;99.90;;;6.66;98.85;103878.69;5073991;28;20106;-70
2022/01/13 08:37:53;;;;;;;63.28;26.63;;;7.10;99.90;;;7.34;99.06;103994.19;5074250;28;20336;-68
2022/01/13 08:40:21;;;;;;;72.82;26.83;;;7.10;99.90;;;7.35;99.20;104003.00;5073905;28;20044;-68
2022/01/13 08:42:50;;;;;;;67.45;27.95;;;7.10;99.90;;;7.46;99.25;104001.88;5074014;28;20516;-68
2022/01/13 08:45:18;;;;;;;67.50;27.38;;;7.20;99.90;;;7.28;98.60;103980.66;5072406;28;20102;-68
2022/01/13 08:47:46;;;;;;;56.65;25.83;;;7.20;99.90;;;7.48;99.00;104001.16;5073398;28;20121;-68
2022/01/13 08:50:16;;;;;;;56.90;26.92;;;7.20;99.90;;;7.50;98.84;104006.50;5072271;28;20072;-67
2022/01/13 08:52:45;;;;;;;53.97;27.48;;;7.30;99.90;;;7.53;98.44;104001.44;5073290;28;20044;-70
2022/01/13 08:55:13;;;;;;;61.88;26.60;;;7.30;99.90;;;7.54;98.76;104005.88;5072212;28;20371;-72
2022/01/13 08:57:42;;;;;;;57.60;27.52;;;7.30;99.90;;;7.50;98.54;104004.78;5073458;28;20046;-73
2022/01/13 09:00:12;;;;;;;65.63;27.48;;;7.30;99.90;;;7.50;98.79;103998.63;5073367;28;20048;-74
2022/01/13 09:02:43;;;;;;;60.83;28.50;;;7.30;99.90;;;7.51;98.88;104006.59;5073448;28;20083;-75
2022/01/13 09:05:16;;;;;;;78.90;28.83;;;7.30;99.90;;;7.45;98.68;104011.53;5071994;28;20135;-75
2022/01/13 09:07:45;;;;;;;77.90;28.48;;;7.20;99.90;;;7.42;99.31;104013.06;5073489;28;20494;-74
2022/01/13 09:10:16;;;;;;;73.25;30.42;;;7.20;99.90;;;7.45;99.23;104016.81;5073046;28;20044;-73
2022/01/13 09:12:45;;;;;;;;;;;7.20;99.90;;;7.59;98.83;104014.97;5073745;28;20056;-73
2022/01/13 09:15:19;;;;;;;56.92;28.55;;;7.30;99.90;;;7.40;99.17;103973.47;5105762;28;19924;-74
2022/01/13 09:17:52;;;;;;;76.75;30.17;;;7.30;99.90;;;7.59;98.83;104015.84;5073223;28;20040;-73
2022/01/13 09:20:21;;;;;;;77.35;30.30;;;7.40;99.90;;;7.57;98.81;104017.50;5071752;28;20395;-73
2022/01/13 09:22:50;;;;;;;63.35;29.25;;;7.40;99.90;;;7.57;99.11;104024.50;5071949;28;20443;-74
2022/01/13 09:25:19;;;;;;;92.65;31.38;;;7.30;99.90;;;7.61;99.14;104013.31;5072620;28;20078;-73
2022/01/13 09:27:47;;;;;;;69.88;29.50;;;7.40;99.90;;;7.67;99.17;104011.03;5072757;28;20498;-74
2022/01/13 09:30:16;;;;;;;66.63;29.48;;;7.40;99.90;;;7.65;98.91;104020.56;5072810;28;20123;-71
2022/01/13 09:32:46;;;;;;;60.97;29.60;;;7.40;99.90;;;7.65;98.88;104008.31;5073114;28;20110;-73
2022/01/13 09:35:15;;;;;;;65.00;30.40;;;7.40;99.90;;;7.49;98.98;103976.63;5071827;28;20059;-72
2022/01/13 09:37:45;;;;;;;72.03;31.00;;;7.40;99.90;;;7.63;99.11;103996.78;5072650;28;20098;-71
2022/01/13 09:40:15;;;;;;;88.28;32.50;;;7.40;99.90;;;7.58;99.10;104013.13;5072942;28;20109;-72
2022/01/13 09:42:45;;;;;;;100.15;34.30;;;7.40;99.90;;;7.67;99.30;104000.50;5071497;28;20044;-73
2022/01/13 09:45:16;;;;;;;73.07;32.28;;;7.40;99.90;;;7.68;99.43;104008.50;5072704;28;20488;-73
2022/01/13 09:47:46;;;;;;;;;;;7.50;99.90;;;7.48;98.80;103989.72;5073035;28;20131;-73
2022/01/13 09:50:19;;;;;;;101.22;34.67;;;7.40;99.90;;;7.53;99.40;104014.63;5073016;28;19924;-72
2022/01/13 09:52:49;;;;;;;76.57;32.80;;;7.40;99.90;;;7.57;99.87;104003.44;5072471;28;20062;-71
2022/01/13 09:55:19;;;;;;;91.68;34.17;;;7.40;99.90;;;7.59;99.81;104015.84;5071133;28;20048;-72
2022/01/13 09:57:50;;;;;;;84.03;35.50;;;7.40;99.90;;;7.54;100.00;104006.78;5072594;28;20055;-70
2022/01/13 10:00:22;;;;;;;92.85;35.85;;;7.40;99.90;;;7.64;100.00;104018.78;5071538;28;20101;-69
2022/01/13 10:02:51;;;;;;;71.40;35.15;;;7.40;99.90;;;7.72;99.85;104023.69;5072425;28;20410;-74
2022/01/13 10:05:22;;;;;;;68.55;36.05;;;7.40;99.90;;;7.84;99.93;104024.34;5071998;28;20132;-74
2022/01/13 10:07:55;;;;;;;77.70;36.88;;;7.50;99.90;;;7.82;99.18;104020.72;5072491;28;20128;-74
2022/01/13 10:10:31;;;;;;;71.07;37.00;;;7.60;99.90;;;7.74;98.98;104006.19;5070852;28;20049;-74
2022/01/13 10:13:07;;;;;;;72.80;35.30;;;7.60;99.90;;;7.83;99.06;104016.38;5072524;28;20076;-73
2022/01/13 10:18:40;;;;;;;73.63;36.35;;;7.60;99.90;;;7.83;99.04;104011.09;5072091;28;20049;-70
2022/01/13 10:21:10;;;;;;;69.93;35.20;;;7.60;99.90;;;7.82;99.12;104006.66;5071855;28;20056;-71
2022/01/13 10:24:06;;;;;;;71.38;35.22;;;7.60;99.90;;;7.91;99.35;104015.09;5071940;28;20051;-71
2022/01/13 10:26:35;;;;;;;67.68;34.90;;;7.70;99.90;;;7.95;99.04;104019.72;5070800;28;20127;-71
2022/01/13 10:29:07;;;;;;;69.22;33.95;;;7.70;99.90;;;7.93;98.92;104022.28;5072153;28;20459;-71
2022/01/13 10:31:48;;;;;;;70.85;35.38;;;7.70;99.90;;;8.01;99.07;104018.31;5071675;28;20048;-71
2022/01/13 10:34:25;;;;;;;65.60;34.35;;;7.70;99.90;;;8.02;98.87;104009.59;5071550;28;20505;-72
2022/01/13 10:37:07;;;;;;;71.40;35.33;;;7.80;99.90;;;8.06;98.94;104011.59;5071781;28;20128;-73
2022/01/13 10:39:57;;;;;;;75.95;35.67;;;7.80;99.90;;;7.97;98.72;104016.34;5071491;28;20048;-71